sensor_id;sensor_type;location;lat;lon;timestamp;temperature;humidity
35635;DHT22;21757;43.610;1.440;2023-02-03T00:01:53;4.90;99.90
35635;DHT22;21757;43.610;1.440;2023-02-03T00:04:19;4.90;99.90
35635;DHT22;21757;43.610;1.440;2023-02-03T00:06:45;4.90;99.90
35635;DHT22;21757;43.610;1.440;2023-02-03T00:09:11;4.90;99.90
35635;DHT22;21757;43.610;1.440;2023-02-03T00:11:36;4.80;99.90
35635;DHT22;21757;43.610;1.440;2023-02-03T00:14:02;4.80;99.90
35635;DHT22;21757;43.610;1.440;2023-02-03T00:16:30;4.80;99.90
35635;DHT22;21757;43.610;1.440;2023-02-03T00:18:55;4.70;99.90
35635;DHT22;21757;43.610;1.440;2023-02-03T00:21:21;4.70;99.90
35635;DHT22;21757;43.610;1.440;2023-02-03T00:23:47;4.70;99.90
35635;DHT22;21757;43.610;1.440;2023-02-03T00:26:15;4.60;99.90
35635;DHT22;21757;43.610;1.440;2023-02-03T00:28:41;4.60;99.90
35635;DHT22;21757;43.610;1.440;2023-02-03T00:31:18;4.60;99.90
35635;DHT22;21757;43.610;1.440;2023-02-03T00:33:44;4.60;99.90
35635;DHT22;21757;43.610;1.440;2023-02-03T00:36:10;4.50;99.90
35635;DHT22;21757;43.610;1.440;2023-02-03T00:38:36;4.50;99.90
35635;DHT22;21757;43.610;1.440;2023-02-03T00:41:01;4.40;99.90
35635;DHT22;21757;43.610;1.440;2023-02-03T00:43:28;4.40;99.90
35635;DHT22;21757;43.610;1.440;2023-02-03T00:45:53;4.30;99.90
35635;DHT22;21757;43.610;1.440;2023-02-03T00:48:19;4.30;99.90
35635;DHT22;21757;43.610;1.440;2023-02-03T00:50:46;4.30;99.90
35635;DHT22;21757;43.610;1.440;2023-02-03T00:53:12;4.30;99.90
35635;DHT22;21757;43.610;1.440;2023-02-03T00:55:38;4.30;99.90
35635;DHT22;21757;43.610;1.440;2023-02-03T00:58:03;4.30;99.90
35635;DHT22;21757;43.610;1.440;2023-02-03T01:00:30;4.30;99.90
35635;DHT22;21757;43.610;1.440;2023-02-03T01:02:56;4.20;99.90
35635;DHT22;21757;43.610;1.440;2023-02-03T01:05:22;4.20;99.90
35635;DHT22;21757;43.610;1.440;2023-02-03T01:07:48;4.20;99.90
35635;DHT22;21757;43.610;1.440;2023-02-03T01:10:13;4.10;99.90
35635;DHT22;21757;43.610;1.440;2023-02-03T01:12:40;4.10;99.90
35635;DHT22;21757;43.610;1.440;2023-02-03T01:15:06;4.10;99.90
35635;DHT22;21757;43.610;1.440;2023-02-03T01:17:32;4.10;99.90
35635;DHT22;21757;43.610;1.440;2023-02-03T01:19:58;4.00;99.90
35635;DHT22;21757;43.610;1.440;2023-02-03T01:22:23;4.00;99.90
35635;DHT22;21757;43.610;1.440;2023-02-03T01:24:49;4.00;99.90
35635;DHT22;21757;43.610;1.440;2023-02-03T01:27:15;4.00;99.90
35635;DHT22;21757;43.610;1.440;2023-02-03T01:29:41;3.90;99.90
35635;DHT22;21757;43.610;1.440;2023-02-03T01:32:06;3.90;99.90
35635;DHT22;21757;43.610;1.440;2023-02-03T01:34:32;3.90;99.90
35635;DHT22;21757;43.610;1.440;2023-02-03T01:36:58;3.90;99.90
35635;DHT22;21757;43.610;1.440;2023-02-03T01:39:23;3.90;99.90
35635;DHT22;21757;43.610;1.440;2023-02-03T01:41:50;3.80;99.90
35635;DHT22;21757;43.610;1.440;2023-02-03T01:44:40;3.70;99.90
35635;DHT22;21757;43.610;1.440;2023-02-03T01:50:16;3.70;99.90
35635;DHT22;21757;43.610;1.440;2023-02-03T01:52:46;3.70;99.90
35635;DHT22;21757;43.610;1.440;2023-02-03T01:55:19;3.70;99.90
35635;DHT22;21757;43.610;1.440;2023-02-03T01:57:55;3.60;99.90
35635;DHT22;21757;43.610;1.440;2023-02-03T02:00:21;3.60;99.90
35635;DHT22;21757;43.610;1.440;2023-02-03T02:02:47;3.50;99.90
35635;DHT22;21757;43.610;1.440;2023-02-03T02:05:24;3.50;99.90
35635;DHT22;21757;43.610;1.440;2023-02-03T02:07:52;3.60;99.90
35635;DHT22;21757;43.610;1.440;2023-02-03T02:10:19;3.60;99.90
35635;DHT22;21757;43.610;1.440;2023-02-03T02:12:46;3.50;99.90
35635;DHT22;21757;43.610;1.440;2023-02-03T02:15:12;3.50;99.90
35635;DHT22;21757;43.610;1.440;2023-02-03T02:23:35;3.40;99.90
35635;DHT22;21757;43.610;1.440;2023-02-03T02:29:37;3.40;99.90
35635;DHT22;21757;43.610;1.440;2023-02-03T02:37:58;3.40;99.90
35635;DHT22;21757;43.610;1.440;2023-02-03T02:40:34;3.40;99.90
35635;DHT22;21757;43.610;1.440;2023-02-03T02:45:58;3.30;99.90
35635;DHT22;21757;43.610;1.440;2023-02-03T02:48:41;3.30;99.90
35635;DHT22;21757;43.610;1.440;2023-02-03T02:51:10;3.30;99.90
35635;DHT22;21757;43.610;1.440;2023-02-03T02:53:41;3.20;99.90
35635;DHT22;21757;43.610;1.440;2023-02-03T02:56:09;3.20;99.90
35635;DHT22;21757;43.610;1.440;2023-02-03T02:58:38;3.20;99.90
35635;DHT22;21757;43.610;1.440;2023-02-03T03:01:07;3.10;99.90
35635;DHT22;21757;43.610;1.440;2023-02-03T03:03:34;3.20;99.90
35635;DHT22;21757;43.610;1.440;2023-02-03T03:06:02;3.20;99.90
35635;DHT22;21757;43.610;1.440;2023-02-03T03:08:46;3.20;99.90
35635;DHT22;21757;43.610;1.440;2023-02-03T03:11:13;3.20;99.90
35635;DHT22;21757;43.610;1.440;2023-02-03T03:13:49;3.20;99.90
35635;DHT22;21757;43.610;1.440;2023-02-03T03:16:20;3.20;99.90
35635;DHT22;21757;43.610;1.440;2023-02-03T03:19:14;3.10;99.90
35635;DHT22;21757;43.610;1.440;2023-02-03T03:21:52;3.10;99.90
35635;DHT22;21757;43.610;1.440;2023-02-03T03:24:23;3.10;99.90
35635;DHT22;21757;43.610;1.440;2023-02-03T03:26:54;3.10;99.90
35635;DHT22;21757;43.610;1.440;2023-02-03T03:29:59;3.10;99.90
35635;DHT22;21757;43.610;1.440;2023-02-03T03:32:16;3.00;99.90
35635;DHT22;21757;43.610;1.440;2023-02-03T03:34:41;3.00;99.90
35635;DHT22;21757;43.610;1.440;2023-02-03T03:37:21;2.90;99.90
35635;DHT22;21757;43.610;1.440;2023-02-03T03:42:33;2.90;99.90
35635;DHT22;21757;43.610;1.440;2023-02-03T03:45:17;2.90;99.90
35635;DHT22;21757;43.610;1.440;2023-02-03T03:47:48;2.90;99.90
35635;DHT22;21757;43.610;1.440;2023-02-03T03:50:22;2.90;99.90
35635;DHT22;21757;43.610;1.440;2023-02-03T03:52:50;2.90;99.90
35635;DHT22;21757;43.610;1.440;2023-02-03T03:55:18;2.90;99.90
35635;DHT22;21757;43.610;1.440;2023-02-03T03:57:52;2.90;99.90
35635;DHT22;21757;43.610;1.440;2023-02-03T04:00:19;3.00;99.90
35635;DHT22;21757;43.610;1.440;2023-02-03T04:02:50;3.00;99.90
35635;DHT22;21757;43.610;1.440;2023-02-03T04:05:17;3.00;99.90
35635;DHT22;21757;43.610;1.440;2023-02-03T04:07:46;3.00;99.90
35635;DHT22;21757;43.610;1.440;2023-02-03T04:10:24;3.00;99.90
35635;DHT22;21757;43.610;1.440;2023-02-03T04:12:51;3.00;99.90
35635;DHT22;21757;43.610;1.440;2023-02-03T04:15:17;3.00;99.90
35635;DHT22;21757;43.610;1.440;2023-02-03T04:17:43;2.90;99.90
35635;DHT22;21757;43.610;1.440;2023-02-03T04:20:09;2.90;99.90
35635;DHT22;21757;43.610;1.440;2023-02-03T04:22:35;2.90;99.90
35635;DHT22;21757;43.610;1.440;2023-02-03T04:25:00;2.90;99.90
35635;DHT22;21757;43.610;1.440;2023-02-03T04:27:26;2.90;99.90
35635;DHT22;21757;43.610;1.440;2023-02-03T04:29:52;2.80;99.90
35635;DHT22;21757;43.610;1.440;2023-02-03T04:32:18;2.90;99.90
35635;DHT22;21757;43.610;1.440;2023-02-03T04:34:44;2.80;99.90
35635;DHT22;21757;43.610;1.440;2023-02-03T04:37:10;2.80;99.90
35635;DHT22;21757;43.610;1.440;2023-02-03T04:39:36;2.80;99.90
35635;DHT22;21757;43.610;1.440;2023-02-03T04:42:02;2.70;99.90
35635;DHT22;21757;43.610;1.440;2023-02-03T04:44:27;2.80;99.90
35635;DHT22;21757;43.610;1.440;2023-02-03T04:46:53;2.80;99.90
35635;DHT22;21757;43.610;1.440;2023-02-03T04:49:19;2.80;99.90
35635;DHT22;21757;43.610;1.440;2023-02-03T04:51:44;2.80;99.90
35635;DHT22;21757;43.610;1.440;2023-02-03T04:54:12;2.80;99.90
35635;DHT22;21757;43.610;1.440;2023-02-03T04:56:38;2.70;99.90
35635;DHT22;21757;43.610;1.440;2023-02-03T04:59:03;2.80;99.90
35635;DHT22;21757;43.610;1.440;2023-02-03T05:01:29;2.70;99.90
35635;DHT22;21757;43.610;1.440;2023-02-03T05:03:55;2.70;99.90
35635;DHT22;21757;43.610;1.440;2023-02-03T05:06:25;2.60;99.90
35635;DHT22;21757;43.610;1.440;2023-02-03T05:08:52;2.60;99.90
35635;DHT22;21757;43.610;1.440;2023-02-03T05:11:18;2.60;99.90
35635;DHT22;21757;43.610;1.440;2023-02-03T05:13:43;2.60;99.90
35635;DHT22;21757;43.610;1.440;2023-02-03T05:16:09;2.60;99.90
35635;DHT22;21757;43.610;1.440;2023-02-03T05:18:35;2.60;99.90
35635;DHT22;21757;43.610;1.440;2023-02-03T05:21:00;2.60;99.90
35635;DHT22;21757;43.610;1.440;2023-02-03T05:23:26;2.60;99.90
35635;DHT22;21757;43.610;1.440;2023-02-03T05:25:52;2.50;99.90
35635;DHT22;21757;43.610;1.440;2023-02-03T05:28:17;2.50;99.90
35635;DHT22;21757;43.610;1.440;2023-02-03T05:30:43;2.40;99.90
35635;DHT22;21757;43.610;1.440;2023-02-03T05:33:09;2.40;99.90
35635;DHT22;21757;43.610;1.440;2023-02-03T05:35:34;2.40;99.90
35635;DHT22;21757;43.610;1.440;2023-02-03T05:38:00;2.40;99.90
35635;DHT22;21757;43.610;1.440;2023-02-03T05:40:26;2.30;99.90
35635;DHT22;21757;43.610;1.440;2023-02-03T05:43:11;2.30;99.90
35635;DHT22;21757;43.610;1.440;2023-02-03T05:45:37;2.30;99.90
35635;DHT22;21757;43.610;1.440;2023-02-03T05:48:03;2.20;99.90
35635;DHT22;21757;43.610;1.440;2023-02-03T05:50:29;2.30;99.90
35635;DHT22;21757;43.610;1.440;2023-02-03T05:53:02;2.30;99.90
35635;DHT22;21757;43.610;1.440;2023-02-03T05:55:29;2.30;99.90
35635;DHT22;21757;43.610;1.440;2023-02-03T05:57:55;2.30;99.90
35635;DHT22;21757;43.610;1.440;2023-02-03T06:00:21;2.30;99.90
35635;DHT22;21757;43.610;1.440;2023-02-03T06:03:05;2.30;99.90
35635;DHT22;21757;43.610;1.440;2023-02-03T06:05:32;2.30;99.90
35635;DHT22;21757;43.610;1.440;2023-02-03T06:07:58;2.30;99.90
35635;DHT22;21757;43.610;1.440;2023-02-03T06:10:24;2.30;99.90
35635;DHT22;21757;43.610;1.440;2023-02-03T06:12:50;2.20;99.90
35635;DHT22;21757;43.610;1.440;2023-02-03T06:15:16;2.20;99.90
35635;DHT22;21757;43.610;1.440;2023-02-03T06:17:46;2.20;99.90
35635;DHT22;21757;43.610;1.440;2023-02-03T06:20:14;2.20;99.90
35635;DHT22;21757;43.610;1.440;2023-02-03T06:22:39;2.20;99.90
35635;DHT22;21757;43.610;1.440;2023-02-03T06:25:06;2.10;99.90
35635;DHT22;21757;43.610;1.440;2023-02-03T06:27:31;2.10;99.90
35635;DHT22;21757;43.610;1.440;2023-02-03T06:29:57;2.20;99.90
35635;DHT22;21757;43.610;1.440;2023-02-03T06:32:23;2.10;99.90
35635;DHT22;21757;43.610;1.440;2023-02-03T06:34:48;2.10;99.90
35635;DHT22;21757;43.610;1.440;2023-02-03T06:37:14;2.10;99.90
35635;DHT22;21757;43.610;1.440;2023-02-03T06:39:40;2.20;99.90
35635;DHT22;21757;43.610;1.440;2023-02-03T06:42:06;2.20;99.90
35635;DHT22;21757;43.610;1.440;2023-02-03T06:44:31;2.20;99.90
35635;DHT22;21757;43.610;1.440;2023-02-03T06:46:57;2.10;99.90
35635;DHT22;21757;43.610;1.440;2023-02-03T06:49:24;2.10;99.90
35635;DHT22;21757;43.610;1.440;2023-02-03T06:51:50;2.00;99.90
35635;DHT22;21757;43.610;1.440;2023-02-03T06:54:17;2.00;99.90
35635;DHT22;21757;43.610;1.440;2023-02-03T06:56:43;2.00;99.90
35635;DHT22;21757;43.610;1.440;2023-02-03T06:59:09;2.00;99.90
35635;DHT22;21757;43.610;1.440;2023-02-03T07:01:35;2.00;99.90
35635;DHT22;21757;43.610;1.440;2023-02-03T07:04:01;1.90;99.90
35635;DHT22;21757;43.610;1.440;2023-02-03T07:06:27;1.90;99.90
35635;DHT22;21757;43.610;1.440;2023-02-03T07:08:58;1.90;99.90
35635;DHT22;21757;43.610;1.440;2023-02-03T07:11:24;1.90;99.90
35635;DHT22;21757;43.610;1.440;2023-02-03T07:13:50;1.90;99.90
35635;DHT22;21757;43.610;1.440;2023-02-03T07:16:16;1.90;99.90
35635;DHT22;21757;43.610;1.440;2023-02-03T07:18:42;1.90;99.90
35635;DHT22;21757;43.610;1.440;2023-02-03T07:21:08;1.90;99.90
35635;DHT22;21757;43.610;1.440;2023-02-03T07:23:33;1.90;99.90
35635;DHT22;21757;43.610;1.440;2023-02-03T07:26:00;1.90;99.90
35635;DHT22;21757;43.610;1.440;2023-02-03T07:28:27;1.90;99.90
35635;DHT22;21757;43.610;1.440;2023-02-03T07:30:53;1.90;99.90
35635;DHT22;21757;43.610;1.440;2023-02-03T07:33:19;2.00;99.90
35635;DHT22;21757;43.610;1.440;2023-02-03T07:35:54;2.10;99.90
35635;DHT22;21757;43.610;1.440;2023-02-03T07:38:21;2.10;99.90
35635;DHT22;21757;43.610;1.440;2023-02-03T07:40:47;2.10;99.90
35635;DHT22;21757;43.610;1.440;2023-02-03T07:43:13;2.10;99.90
35635;DHT22;21757;43.610;1.440;2023-02-03T07:45:38;2.10;99.90
35635;DHT22;21757;43.610;1.440;2023-02-03T07:48:04;2.10;99.90
35635;DHT22;21757;43.610;1.440;2023-02-03T07:50:30;2.20;99.90
35635;DHT22;21757;43.610;1.440;2023-02-03T07:52:58;2.10;99.90
35635;DHT22;21757;43.610;1.440;2023-02-03T07:55:23;2.10;99.90
35635;DHT22;21757;43.610;1.440;2023-02-03T07:57:49;2.10;99.90
35635;DHT22;21757;43.610;1.440;2023-02-03T08:00:15;2.20;99.90
35635;DHT22;21757;43.610;1.440;2023-02-03T08:02:42;2.20;99.90
35635;DHT22;21757;43.610;1.440;2023-02-03T08:05:09;2.30;99.90
35635;DHT22;21757;43.610;1.440;2023-02-03T08:07:35;2.20;99.90
35635;DHT22;21757;43.610;1.440;2023-02-03T08:10:00;2.20;99.90
35635;DHT22;21757;43.610;1.440;2023-02-03T08:12:26;2.20;99.90
35635;DHT22;21757;43.610;1.440;2023-02-03T08:14:52;2.30;99.90
35635;DHT22;21757;43.610;1.440;2023-02-03T08:17:18;2.30;99.90
35635;DHT22;21757;43.610;1.440;2023-02-03T08:19:43;2.40;99.90
35635;DHT22;21757;43.610;1.440;2023-02-03T08:22:09;2.60;99.90
35635;DHT22;21757;43.610;1.440;2023-02-03T08:24:46;2.70;99.90
35635;DHT22;21757;43.610;1.440;2023-02-03T08:27:13;2.70;99.90
35635;DHT22;21757;43.610;1.440;2023-02-03T08:29:39;2.90;99.90
35635;DHT22;21757;43.610;1.440;2023-02-03T08:32:07;2.80;99.90
35635;DHT22;21757;43.610;1.440;2023-02-03T08:34:33;2.90;99.90
35635;DHT22;21757;43.610;1.440;2023-02-03T08:36:59;2.90;99.90
35635;DHT22;21757;43.610;1.440;2023-02-03T08:39:24;3.00;99.90
35635;DHT22;21757;43.610;1.440;2023-02-03T08:41:51;3.00;99.90
35635;DHT22;21757;43.610;1.440;2023-02-03T08:44:16;3.10;99.90
35635;DHT22;21757;43.610;1.440;2023-02-03T08:46:44;3.10;99.90
35635;DHT22;21757;43.610;1.440;2023-02-03T08:49:10;3.20;99.90
35635;DHT22;21757;43.610;1.440;2023-02-03T08:51:36;3.30;99.90
35635;DHT22;21757;43.610;1.440;2023-02-03T08:54:02;3.30;99.90
35635;DHT22;21757;43.610;1.440;2023-02-03T08:56:28;3.40;99.90
35635;DHT22;21757;43.610;1.440;2023-02-03T08:58:54;3.40;99.90
35635;DHT22;21757;43.610;1.440;2023-02-03T09:01:20;3.50;99.90
35635;DHT22;21757;43.610;1.440;2023-02-03T09:03:45;3.50;99.90
35635;DHT22;21757;43.610;1.440;2023-02-03T09:06:11;3.50;99.90
35635;DHT22;21757;43.610;1.440;2023-02-03T09:08:41;3.60;99.90
35635;DHT22;21757;43.610;1.440;2023-02-03T09:11:17;3.70;99.90
35635;DHT22;21757;43.610;1.440;2023-02-03T09:13:43;3.70;99.90
35635;DHT22;21757;43.610;1.440;2023-02-03T09:16:14;3.80;99.90
35635;DHT22;21757;43.610;1.440;2023-02-03T09:18:41;3.80;99.90
35635;DHT22;21757;43.610;1.440;2023-02-03T09:21:09;3.90;99.90
35635;DHT22;21757;43.610;1.440;2023-02-03T09:23:39;4.00;99.90
35635;DHT22;21757;43.610;1.440;2023-02-03T09:26:10;4.00;99.90
35635;DHT22;21757;43.610;1.440;2023-02-03T09:28:37;4.00;99.90
35635;DHT22;21757;43.610;1.440;2023-02-03T09:31:06;4.10;99.90
35635;DHT22;21757;43.610;1.440;2023-02-03T09:33:32;4.20;99.90
35635;DHT22;21757;43.610;1.440;2023-02-03T09:35:58;4.30;99.90
35635;DHT22;21757;43.610;1.440;2023-02-03T09:38:25;4.40;99.90
35635;DHT22;21757;43.610;1.440;2023-02-03T09:43:51;4.50;99.90
35635;DHT22;21757;43.610;1.440;2023-02-03T09:46:21;4.60;99.90
35635;DHT22;21757;43.610;1.440;2023-02-03T09:48:53;4.70;99.90
35635;DHT22;21757;43.610;1.440;2023-02-03T09:51:41;4.80;99.90
35635;DHT22;21757;43.610;1.440;2023-02-03T09:57:23;4.80;99.90
35635;DHT22;21757;43.610;1.440;2023-02-03T09:59:50;5.00;99.90
35635;DHT22;21757;43.610;1.440;2023-02-03T10:02:25;5.00;99.90
35635;DHT22;21757;43.610;1.440;2023-02-03T10:08:16;5.10;99.90
35635;DHT22;21757;43.610;1.440;2023-02-03T10:10:52;5.20;99.90
35635;DHT22;21757;43.610;1.440;2023-02-03T10:19:10;5.40;99.90
35635;DHT22;21757;43.610;1.440;2023-02-03T10:21:47;5.50;99.90
35635;DHT22;21757;43.610;1.440;2023-02-03T10:24:27;5.50;99.90
35635;DHT22;21757;43.610;1.440;2023-02-03T10:26:56;5.60;99.90
35635;DHT22;21757;43.610;1.440;2023-02-03T10:29:37;5.70;99.90
35635;DHT22;21757;43.610;1.440;2023-02-03T10:32:10;5.80;99.90
35635;DHT22;21757;43.610;1.440;2023-02-03T10:34:36;5.90;99.90
35635;DHT22;21757;43.610;1.440;2023-02-03T10:39:51;6.00;99.90
35635;DHT22;21757;43.610;1.440;2023-02-03T10:42:17;6.00;99.90
35635;DHT22;21757;43.610;1.440;2023-02-03T10:44:59;6.00;99.90
35635;DHT22;21757;43.610;1.440;2023-02-03T10:47:41;6.10;99.90
35635;DHT22;21757;43.610;1.440;2023-02-03T10:50:25;6.20;99.90
35635;DHT22;21757;43.610;1.440;2023-02-03T10:53:32;6.30;99.90
35635;DHT22;21757;43.610;1.440;2023-02-03T10:58:30;6.40;99.90
35635;DHT22;21757;43.610;1.440;2023-02-03T11:01:36;6.50;99.90
35635;DHT22;21757;43.610;1.440;2023-02-03T11:04:04;6.60;99.90
35635;DHT22;21757;43.610;1.440;2023-02-03T11:06:32;6.60;99.90
35635;DHT22;21757;43.610;1.440;2023-02-03T11:08:58;6.70;99.90
35635;DHT22;21757;43.610;1.440;2023-02-03T11:11:27;6.80;99.90
35635;DHT22;21757;43.610;1.440;2023-02-03T11:16:30;6.90;99.90
35635;DHT22;21757;43.610;1.440;2023-02-03T11:21:49;7.00;99.90
35635;DHT22;21757;43.610;1.440;2023-02-03T11:24:27;7.10;99.90
35635;DHT22;21757;43.610;1.440;2023-02-03T11:26:54;7.10;99.90
35635;DHT22;21757;43.610;1.440;2023-02-03T11:31:51;7.30;99.90
35635;DHT22;21757;43.610;1.440;2023-02-03T11:34:23;7.30;99.90
35635;DHT22;21757;43.610;1.440;2023-02-03T11:36:50;7.30;99.90
35635;DHT22;21757;43.610;1.440;2023-02-03T11:41:47;7.50;99.90
35635;DHT22;21757;43.610;1.440;2023-02-03T11:46:45;7.50;99.90
35635;DHT22;21757;43.610;1.440;2023-02-03T11:55:05;7.60;99.90
35635;DHT22;21757;43.610;1.440;2023-02-03T11:57:44;7.70;99.90
35635;DHT22;21757;43.610;1.440;2023-02-03T12:03:43;7.90;99.90
35635;DHT22;21757;43.610;1.440;2023-02-03T12:14:45;8.20;99.90
35635;DHT22;21757;43.610;1.440;2023-02-03T12:30:54;8.20;99.90
35635;DHT22;21757;43.610;1.440;2023-02-03T12:33:31;8.30;99.90
35635;DHT22;21757;43.610;1.440;2023-02-03T12:41:14;8.70;99.90
35635;DHT22;21757;43.610;1.440;2023-02-03T12:43:44;8.70;99.90
35635;DHT22;21757;43.610;1.440;2023-02-03T12:46:28;8.70;99.90
35635;DHT22;21757;43.610;1.440;2023-02-03T12:51:34;8.90;99.90
35635;DHT22;21757;43.610;1.440;2023-02-03T12:56:54;9.00;99.90
35635;DHT22;21757;43.610;1.440;2023-02-03T12:59:24;9.10;99.90
35635;DHT22;21757;43.610;1.440;2023-02-03T13:02:08;9.20;99.90
35635;DHT22;21757;43.610;1.440;2023-02-03T13:04:47;9.30;99.90
35635;DHT22;21757;43.610;1.440;2023-02-03T13:07:15;9.20;99.90
35635;DHT22;21757;43.610;1.440;2023-02-03T13:10:24;9.30;99.90
35635;DHT22;21757;43.610;1.440;2023-02-03T13:12:58;9.40;99.90
35635;DHT22;21757;43.610;1.440;2023-02-03T13:15:29;9.40;99.90
35635;DHT22;21757;43.610;1.440;2023-02-03T13:20:29;9.40;99.90
35635;DHT22;21757;43.610;1.440;2023-02-03T13:22:56;9.40;99.90
35635;DHT22;21757;43.610;1.440;2023-02-03T13:30:45;9.50;99.90
35635;DHT22;21757;43.610;1.440;2023-02-03T13:33:35;9.60;99.90
35635;DHT22;21757;43.610;1.440;2023-02-03T13:41:50;9.90;99.90
35635;DHT22;21757;43.610;1.440;2023-02-03T13:44:18;9.90;99.90
35635;DHT22;21757;43.610;1.440;2023-02-03T13:46:50;9.90;99.90
35635;DHT22;21757;43.610;1.440;2023-02-03T13:49:29;9.90;99.90
35635;DHT22;21757;43.610;1.440;2023-02-03T13:51:56;10.00;99.90
35635;DHT22;21757;43.610;1.440;2023-02-03T13:56:59;10.10;99.90
35635;DHT22;21757;43.610;1.440;2023-02-03T13:59:41;10.10;99.90
35635;DHT22;21757;43.610;1.440;2023-02-03T14:04:52;10.10;99.90
35635;DHT22;21757;43.610;1.440;2023-02-03T14:07:31;10.10;99.90
35635;DHT22;21757;43.610;1.440;2023-02-03T14:23:07;10.40;99.90
35635;DHT22;21757;43.610;1.440;2023-02-03T14:25:43;10.40;99.90
35635;DHT22;21757;43.610;1.440;2023-02-03T14:28:14;10.40;99.90
35635;DHT22;21757;43.610;1.440;2023-02-03T14:34:01;10.40;99.90
35635;DHT22;21757;43.610;1.440;2023-02-03T14:36:31;10.40;99.90
35635;DHT22;21757;43.610;1.440;2023-02-03T14:39:27;10.40;99.90
35635;DHT22;21757;43.610;1.440;2023-02-03T14:42:22;10.50;99.90
35635;DHT22;21757;43.610;1.440;2023-02-03T14:47:48;10.50;99.90
35635;DHT22;21757;43.610;1.440;2023-02-03T14:53:07;10.60;99.90
35635;DHT22;21757;43.610;1.440;2023-02-03T14:55:41;10.60;99.90
35635;DHT22;21757;43.610;1.440;2023-02-03T15:00:53;10.70;99.90
35635;DHT22;21757;43.610;1.440;2023-02-03T15:03:21;10.70;99.90
35635;DHT22;21757;43.610;1.440;2023-02-03T15:05:59;10.80;99.90
35635;DHT22;21757;43.610;1.440;2023-02-03T15:08:43;10.80;99.90
35635;DHT22;21757;43.610;1.440;2023-02-03T15:13:47;10.70;99.90
35635;DHT22;21757;43.610;1.440;2023-02-03T15:16:17;10.80;99.90
35635;DHT22;21757;43.610;1.440;2023-02-03T15:18:44;10.90;99.90
35635;DHT22;21757;43.610;1.440;2023-02-03T15:21:18;10.90;99.90
35635;DHT22;21757;43.610;1.440;2023-02-03T15:23:46;11.00;99.90
35635;DHT22;21757;43.610;1.440;2023-02-03T15:26:14;11.00;99.90
35635;DHT22;21757;43.610;1.440;2023-02-03T15:28:40;11.00;99.90
35635;DHT22;21757;43.610;1.440;2023-02-03T15:31:19;11.00;99.90
35635;DHT22;21757;43.610;1.440;2023-02-03T15:33:49;10.90;99.90
35635;DHT22;21757;43.610;1.440;2023-02-03T15:36:22;10.90;99.90
35635;DHT22;21757;43.610;1.440;2023-02-03T15:39:08;10.90;99.90
35635;DHT22;21757;43.610;1.440;2023-02-03T15:41:39;10.80;99.90
35635;DHT22;21757;43.610;1.440;2023-02-03T15:44:20;10.90;99.90
35635;DHT22;21757;43.610;1.440;2023-02-03T15:46:51;10.90;99.90
35635;DHT22;21757;43.610;1.440;2023-02-03T15:49:29;10.80;99.90
35635;DHT22;21757;43.610;1.440;2023-02-03T15:52:22;10.70;99.90
35635;DHT22;21757;43.610;1.440;2023-02-03T15:54:52;10.60;99.90
35635;DHT22;21757;43.610;1.440;2023-02-03T15:57:27;10.60;99.90
35635;DHT22;21757;43.610;1.440;2023-02-03T15:59:56;10.50;99.90
35635;DHT22;21757;43.610;1.440;2023-02-03T16:02:42;10.50;99.90
35635;DHT22;21757;43.610;1.440;2023-02-03T16:05:32;10.50;99.90
35635;DHT22;21757;43.610;1.440;2023-02-03T16:08:33;10.70;99.90
35635;DHT22;21757;43.610;1.440;2023-02-03T16:11:00;10.50;99.90
35635;DHT22;21757;43.610;1.440;2023-02-03T16:13:27;10.40;99.90
35635;DHT22;21757;43.610;1.440;2023-02-03T16:16:39;10.30;99.90
35635;DHT22;21757;43.610;1.440;2023-02-03T16:19:15;10.20;99.90
35635;DHT22;21757;43.610;1.440;2023-02-03T16:24:35;10.00;99.90
35635;DHT22;21757;43.610;1.440;2023-02-03T16:27:32;9.90;99.90
35635;DHT22;21757;43.610;1.440;2023-02-03T16:35:51;9.70;99.90
35635;DHT22;21757;43.610;1.440;2023-02-03T16:38:35;9.60;99.90
35635;DHT22;21757;43.610;1.440;2023-02-03T16:41:19;9.60;99.90
35635;DHT22;21757;43.610;1.440;2023-02-03T16:44:03;9.50;99.90
35635;DHT22;21757;43.610;1.440;2023-02-03T16:46:48;9.40;99.90
35635;DHT22;21757;43.610;1.440;2023-02-03T16:49:32;9.30;99.90
35635;DHT22;21757;43.610;1.440;2023-02-03T16:52:16;9.20;99.90
35635;DHT22;21757;43.610;1.440;2023-02-03T16:54:42;9.20;99.90
35635;DHT22;21757;43.610;1.440;2023-02-03T16:57:09;9.10;99.90
35635;DHT22;21757;43.610;1.440;2023-02-03T16:59:35;9.00;99.90
35635;DHT22;21757;43.610;1.440;2023-02-03T17:02:01;8.90;99.90
35635;DHT22;21757;43.610;1.440;2023-02-03T17:04:26;8.90;99.90
35635;DHT22;21757;43.610;1.440;2023-02-03T17:06:52;8.90;99.90
35635;DHT22;21757;43.610;1.440;2023-02-03T17:09:18;8.90;99.90
35635;DHT22;21757;43.610;1.440;2023-02-03T17:11:49;8.80;99.90
35635;DHT22;21757;43.610;1.440;2023-02-03T17:14:16;8.70;99.90
35635;DHT22;21757;43.610;1.440;2023-02-03T17:16:42;8.70;99.90
35635;DHT22;21757;43.610;1.440;2023-02-03T17:19:11;8.70;99.90
35635;DHT22;21757;43.610;1.440;2023-02-03T17:21:37;8.70;99.90
35635;DHT22;21757;43.610;1.440;2023-02-03T17:24:03;8.60;99.90
35635;DHT22;21757;43.610;1.440;2023-02-03T17:26:29;8.60;99.90
35635;DHT22;21757;43.610;1.440;2023-02-03T17:28:55;8.50;99.90
35635;DHT22;21757;43.610;1.440;2023-02-03T17:31:27;8.50;99.90
35635;DHT22;21757;43.610;1.440;2023-02-03T17:33:53;8.50;99.90
35635;DHT22;21757;43.610;1.440;2023-02-03T17:36:19;8.50;99.90
35635;DHT22;21757;43.610;1.440;2023-02-03T17:38:50;8.40;99.90
35635;DHT22;21757;43.610;1.440;2023-02-03T17:41:18;8.40;99.90
35635;DHT22;21757;43.610;1.440;2023-02-03T17:43:45;8.40;99.90
35635;DHT22;21757;43.610;1.440;2023-02-03T17:46:14;8.30;99.90
35635;DHT22;21757;43.610;1.440;2023-02-03T17:48:40;8.30;99.90
35635;DHT22;21757;43.610;1.440;2023-02-03T17:51:08;8.20;99.90
35635;DHT22;21757;43.610;1.440;2023-02-03T17:53:35;8.20;99.90
35635;DHT22;21757;43.610;1.440;2023-02-03T17:56:10;8.00;99.90
35635;DHT22;21757;43.610;1.440;2023-02-03T17:58:38;7.90;99.90
35635;DHT22;21757;43.610;1.440;2023-02-03T18:01:15;7.80;99.90
35635;DHT22;21757;43.610;1.440;2023-02-03T18:03:52;7.70;99.90
35635;DHT22;21757;43.610;1.440;2023-02-03T18:06:19;7.70;99.90
35635;DHT22;21757;43.610;1.440;2023-02-03T18:08:46;7.70;99.90
35635;DHT22;21757;43.610;1.440;2023-02-03T18:11:13;7.70;99.90
35635;DHT22;21757;43.610;1.440;2023-02-03T18:13:41;7.60;99.90
35635;DHT22;21757;43.610;1.440;2023-02-03T18:16:14;7.70;99.90
35635;DHT22;21757;43.610;1.440;2023-02-03T18:18:42;7.60;99.90
35635;DHT22;21757;43.610;1.440;2023-02-03T18:21:12;7.50;99.90
35635;DHT22;21757;43.610;1.440;2023-02-03T18:23:38;7.60;99.90
35635;DHT22;21757;43.610;1.440;2023-02-03T18:26:05;7.60;99.90
35635;DHT22;21757;43.610;1.440;2023-02-03T18:28:31;7.60;99.90
35635;DHT22;21757;43.610;1.440;2023-02-03T18:30:58;7.60;99.90
35635;DHT22;21757;43.610;1.440;2023-02-03T18:33:24;7.60;99.90
35635;DHT22;21757;43.610;1.440;2023-02-03T18:35:50;7.50;99.90
35635;DHT22;21757;43.610;1.440;2023-02-03T18:38:15;7.50;99.90